King Salmon Airport
PAKN : now visible

Airfield :











YOU CAN JOIN US ON...

 
LOGIN :

Register | Disclaimer

   EN    FR    IT 

 









Legend :    VFR   Marginal VFR   IFR   Intensive IFR   Very Intensive IFR
Visi :
Ceiling :
>= 8 km
>= 3000ft
5 to 8 km
1000 to 3000 ft
1500m to 5 km
500 to 1000 ft
800 to 1500m
200 to 500 ft
< 800m
< 200 ft
Symbols :   Thunderstorms  Fog  Heavy snow  Heavy precipitations  Wind > 20 kt






- Airport Elevation : 73 ft
- IATA code : AKN


PAKN - King Salmon

CURRENT METAR :
  • 210654Z 22015G21KT 9SM OVC012 M08/M11 A2909 RMK AO2 SNE50 SLP853 P0000 T10781106

EXPIRED METARs :
  • 210615Z 23016KT 2SM -SN BR OVC011 M08/M10 A2908 RMK AO2 VIS 1V3 P0000 T10781100
  • 210602Z 24013G21KT 1 1/2SM -SN BR OVC011 M08/M10 A2907 RMK AO2 P0000 T10781100
  • 210554Z 23015G21KT 6SM -SN BR OVC011 M08/M09 A2907 RMK AO2 SNB07 SLP845 P0000 60003 T10781094 11028 21078 52029
  • 210454Z AUTO 23015G21KT 7SM OVC011 M07/M09 A2904 RMK AO2 UPB29E39SNB28E29B35E38B39E40 SLP835 P0000 T10671089 TSNO

TAF PAKN
Valid from the 21 at 06:00 until the 22 at 06:00 UTC


210534Z 2106/2206 23017KT P6SM VCSH OVC010
FM211900 25012G22KT 3SM -SHSN BLSN OVC010
FM220200 26010KT 5SM BR OVC010



MET'MAP, your aeronautical weather chart ! - Copyright ORBIFLY December 2007 - Disclaimer

ORBIFLY MET'MAP TEAM :

Programming & Development : Alexandra Zaïnal
Concept & original design : Baudouin d'Aumeries
Assistance for programming : Marc-Olivier Méhu
Technical & hardware support : Manuel Goepfert

Contact : metmap@orbifly.com




SOURCES & CREDITS :

   NOAA       Earth
Advisory